MSC8 HECA-HESH
Flight info
| Callsign | MSC8 |
|---|---|
| Flight time | N/A |
| Altitude | 25000 |
| Route | HECA/05C CVO L677 MENLI N697 SISIK V603 DASOT DCT SHM |
| Aircraft | A320/M-SDE3FGHIRWY/LB1 |
Departure
| Time | N/A |
|---|---|
| Airport | Cairo International Airport (HECA) |
Arrival
| Time | 2026-05-05 15:13 |
|---|---|
| Airport | Sharm El Sheikh International Airport (HESH) |
| Time | Latitude | Longitude | Altitude | Speed | Heading |
|---|---|---|---|---|---|
| 2026-05-05 14:45 | 29.75490 | 31.99711 | 18064 ft | 446 kts | 104° |
| 2026-05-05 14:45 | 29.74713 | 32.03189 | 18574 ft | 450 kts | 104° |
| 2026-05-05 14:45 | 29.73927 | 32.06688 | 19049 ft | 455 kts | 104° |
| 2026-05-05 14:46 | 29.73130 | 32.10230 | 19503 ft | 459 kts | 105° |
| 2026-05-05 14:46 | 29.72325 | 32.13813 | 19971 ft | 463 kts | 105° |
| 2026-05-05 14:46 | 29.71519 | 32.17417 | 20430 ft | 467 kts | 105° |
| 2026-05-05 14:46 | 29.70707 | 32.21063 | 20865 ft | 471 kts | 105° |
| 2026-05-05 14:47 | 29.69900 | 32.24688 | 21285 ft | 476 kts | 105° |
| 2026-05-05 14:47 | 29.69072 | 32.28396 | 21698 ft | 480 kts | 105° |
| 2026-05-05 14:47 | 29.68235 | 32.32137 | 22098 ft | 484 kts | 105° |
| 2026-05-05 14:47 | 29.67127 | 32.35793 | 22487 ft | 484 kts | 119° |
| 2026-05-05 14:48 | 29.65298 | 32.39012 | 22879 ft | 481 kts | 135° |
| 2026-05-05 14:48 | 29.62852 | 32.41587 | 23250 ft | 473 kts | 151° |
| 2026-05-05 14:48 | 29.60114 | 32.43689 | 23597 ft | 474 kts | 153° |
| 2026-05-05 14:48 | 29.57387 | 32.45751 | 24002 ft | 474 kts | 153° |
| 2026-05-05 14:49 | 29.54619 | 32.47836 | 24381 ft | 475 kts | 153° |
| 2026-05-05 14:49 | 29.51845 | 32.49923 | 24733 ft | 477 kts | 153° |
| 2026-05-05 14:49 | 29.49060 | 32.52022 | 24970 ft | 478 kts | 153° |
| 2026-05-05 14:49 | 29.46267 | 32.54131 | 25047 ft | 483 kts | 153° |
| 2026-05-05 14:50 | 29.43475 | 32.56239 | 25053 ft | 489 kts | 152° |
| 2026-05-05 14:50 | 29.40625 | 32.58395 | 25051 ft | 491 kts | 152° |
| 2026-05-05 14:50 | 29.37774 | 32.60558 | 25050 ft | 491 kts | 152° |
| 2026-05-05 14:50 | 29.34912 | 32.62731 | 25047 ft | 491 kts | 152° |
| 2026-05-05 14:51 | 29.32058 | 32.64889 | 25045 ft | 491 kts | 153° |
| 2026-05-05 14:51 | 29.29205 | 32.67039 | 25022 ft | 490 kts | 153° |
| 2026-05-05 14:51 | 29.26387 | 32.69160 | 25045 ft | 489 kts | 152° |
| 2026-05-05 14:51 | 29.23540 | 32.71298 | 25042 ft | 488 kts | 153° |
| 2026-05-05 14:52 | 29.20697 | 32.73432 | 25039 ft | 488 kts | 152° |
| 2026-05-05 14:52 | 29.17846 | 32.75573 | 25038 ft | 488 kts | 152° |
| 2026-05-05 14:52 | 29.15038 | 32.77686 | 25038 ft | 488 kts | 152° |
| 2026-05-05 14:52 | 29.12197 | 32.79823 | 25039 ft | 488 kts | 152° |
| 2026-05-05 14:53 | 29.09355 | 32.81965 | 25037 ft | 488 kts | 152° |
| 2026-05-05 14:53 | 29.06512 | 32.84105 | 25035 ft | 488 kts | 152° |
| 2026-05-05 14:53 | 29.03670 | 32.86235 | 25031 ft | 488 kts | 153° |
| 2026-05-05 14:53 | 29.00859 | 32.88334 | 25031 ft | 488 kts | 153° |
| 2026-05-05 14:54 | 28.98013 | 32.90454 | 25032 ft | 488 kts | 153° |
| 2026-05-05 14:54 | 28.95162 | 32.92581 | 25035 ft | 488 kts | 153° |
| 2026-05-05 14:54 | 28.92313 | 32.94709 | 25032 ft | 488 kts | 153° |
| 2026-05-05 14:54 | 28.89475 | 32.96826 | 25033 ft | 487 kts | 153° |
| 2026-05-05 14:55 | 28.86662 | 32.98925 | 25031 ft | 487 kts | 153° |
| 2026-05-05 14:55 | 28.83823 | 33.01048 | 25033 ft | 487 kts | 153° |
| 2026-05-05 14:55 | 28.80981 | 33.03174 | 25033 ft | 487 kts | 153° |
| 2026-05-05 14:55 | 28.78138 | 33.05295 | 25031 ft | 487 kts | 153° |
| 2026-05-05 14:56 | 28.75336 | 33.07384 | 25033 ft | 487 kts | 153° |
| 2026-05-05 14:56 | 28.72496 | 33.09497 | 25033 ft | 487 kts | 153° |
| 2026-05-05 14:56 | 28.69659 | 33.11602 | 25033 ft | 487 kts | 153° |
| 2026-05-05 14:56 | 28.66816 | 33.13710 | 25007 ft | 487 kts | 153° |
| 2026-05-05 14:57 | 28.63979 | 33.15814 | 25013 ft | 487 kts | 153° |
| 2026-05-05 14:57 | 28.61129 | 33.17932 | 25017 ft | 487 kts | 153° |
| 2026-05-05 14:57 | 28.58292 | 33.20041 | 24845 ft | 487 kts | 153° |
| 2026-05-05 14:57 | 28.55451 | 33.22151 | 24615 ft | 487 kts | 153° |
| 2026-05-05 14:58 | 28.52641 | 33.24233 | 24386 ft | 487 kts | 153° |
| 2026-05-05 14:58 | 28.49813 | 33.26325 | 24152 ft | 479 kts | 153° |
| 2026-05-05 14:58 | 28.47066 | 33.28364 | 23921 ft | 463 kts | 153° |
| 2026-05-05 14:58 | 28.44397 | 33.30347 | 23697 ft | 449 kts | 153° |
| 2026-05-05 14:59 | 28.41810 | 33.32264 | 23448 ft | 437 kts | 153° |
| 2026-05-05 14:59 | 28.39328 | 33.34096 | 23181 ft | 426 kts | 153° |
| 2026-05-05 14:59 | 28.36864 | 33.35908 | 22935 ft | 415 kts | 154° |
| 2026-05-05 14:59 | 28.34475 | 33.37663 | 22790 ft | 403 kts | 154° |
| 2026-05-05 15:00 | 28.32158 | 33.39367 | 22604 ft | 392 kts | 154° |
| 2026-05-05 15:00 | 28.30645 | 33.40480 | 22372 ft | 388 kts | 154° |
| 2026-05-05 15:00 | 28.27628 | 33.42695 | 21826 ft | 383 kts | 154° |
| 2026-05-05 15:00 | 28.25397 | 33.44331 | 21341 ft | 379 kts | 154° |
| 2026-05-05 15:01 | 28.23193 | 33.45949 | 20602 ft | 375 kts | 154° |
| 2026-05-05 15:01 | 28.21023 | 33.47542 | 19990 ft | 378 kts | 153° |
| 2026-05-05 15:01 | 28.18766 | 33.49189 | 19052 ft | 393 kts | 153° |
| 2026-05-05 15:01 | 28.16425 | 33.50891 | 18080 ft | 407 kts | 153° |
| 2026-05-05 15:02 | 28.14018 | 33.52649 | 17278 ft | 413 kts | 152° |
| 2026-05-05 15:02 | 28.11597 | 33.54429 | 16729 ft | 412 kts | 152° |
| 2026-05-05 15:02 | 28.09203 | 33.56193 | 16231 ft | 409 kts | 152° |
| 2026-05-05 15:02 | 28.06830 | 33.57946 | 15748 ft | 406 kts | 151° |
| 2026-05-05 15:03 | 28.04486 | 33.59704 | 15270 ft | 403 kts | 148° |
| 2026-05-05 15:03 | 28.02448 | 33.61828 | 14834 ft | 406 kts | 133° |
| 2026-05-05 15:03 | 28.00865 | 33.64486 | 14380 ft | 407 kts | 118° |
| 2026-05-05 15:03 | 27.99815 | 33.67441 | 13374 ft | 406 kts | 110° |
| 2026-05-05 15:04 | 27.98916 | 33.70531 | 12081 ft | 422 kts | 109° |
| 2026-05-05 15:04 | 27.98022 | 33.73726 | 11711 ft | 429 kts | 108° |
| 2026-05-05 15:04 | 27.97129 | 33.76957 | 11371 ft | 430 kts | 108° |
| 2026-05-05 15:04 | 27.96239 | 33.80173 | 10951 ft | 422 kts | 108° |
| 2026-05-05 15:05 | 27.94575 | 33.86097 | 10683 ft | 369 kts | 109° |
| 2026-05-05 15:05 | 27.93809 | 33.88783 | 10568 ft | 352 kts | 109° |
| 2026-05-05 15:05 | 27.93066 | 33.91377 | 10431 ft | 341 kts | 109° |
| 2026-05-05 15:06 | 27.92339 | 33.93912 | 10190 ft | 335 kts | 109° |
| 2026-05-05 15:06 | 27.91866 | 33.95562 | 9991 ft | 332 kts | 109° |
| 2026-05-05 15:06 | 27.91139 | 33.98029 | 9652 ft | 329 kts | 111° |
| 2026-05-05 15:06 | 27.90318 | 34.00479 | 8857 ft | 340 kts | 112° |
| 2026-05-05 15:07 | 27.89392 | 34.03014 | 7933 ft | 355 kts | 113° |
| 2026-05-05 15:07 | 27.88407 | 34.05626 | 7002 ft | 367 kts | 112° |
| 2026-05-05 15:07 | 27.87392 | 34.08306 | 6238 ft | 371 kts | 111° |
| 2026-05-05 15:07 | 27.86399 | 34.10954 | 5795 ft | 360 kts | 111° |
| 2026-05-05 15:08 | 27.85474 | 34.13452 | 5368 ft | 337 kts | 111° |
| 2026-05-05 15:08 | 27.84606 | 34.15819 | 4973 ft | 316 kts | 110° |
| 2026-05-05 15:08 | 27.83834 | 34.18062 | 4597 ft | 296 kts | 104° |
| 2026-05-05 15:08 | 27.83500 | 34.20308 | 4016 ft | 282 kts | 87° |
| 2026-05-05 15:09 | 27.83680 | 34.22416 | 3745 ft | 258 kts | 74° |
| 2026-05-05 15:09 | 27.84241 | 34.24275 | 3480 ft | 241 kts | 62° |
| 2026-05-05 15:09 | 27.85070 | 34.25817 | 3218 ft | 226 kts | 50° |
| 2026-05-05 15:09 | 27.86125 | 34.27097 | 2930 ft | 217 kts | 40° |
| 2026-05-05 15:10 | 27.87197 | 34.28211 | 2674 ft | 203 kts | 40° |
| 2026-05-05 15:10 | 27.88188 | 34.29242 | 2418 ft | 187 kts | 43° |
| 2026-05-05 15:10 | 27.89108 | 34.30198 | 2160 ft | 172 kts | 43° |
| 2026-05-05 15:10 | 27.89945 | 34.31069 | 1952 ft | 157 kts | 43° |
| 2026-05-05 15:11 | 27.90708 | 34.31863 | 1769 ft | 143 kts | 43° |
| 2026-05-05 15:11 | 27.91427 | 34.32617 | 1579 ft | 139 kts | 43° |
| 2026-05-05 15:11 | 27.92126 | 34.33367 | 1366 ft | 138 kts | 43° |
| 2026-05-05 15:11 | 27.92822 | 34.34101 | 1209 ft | 137 kts | 40° |
| 2026-05-05 15:12 | 27.93523 | 34.34820 | 1082 ft | 136 kts | 40° |
| 2026-05-05 15:12 | 27.94224 | 34.35547 | 984 ft | 137 kts | 41° |
| 2026-05-05 15:12 | 27.94937 | 34.36267 | 741 ft | 139 kts | 38° |
| 2026-05-05 15:12 | 27.95648 | 34.37012 | 556 ft | 138 kts | 40° |
| 2026-05-05 15:13 | 27.96353 | 34.37757 | 321 ft | 138 kts | 39° |
| 2026-05-05 15:13 | 27.97033 | 34.38460 | 141 ft | 127 kts | 39° |
| 2026-05-05 15:13 | 27.97539 | 34.38973 | 137 ft | 57 kts | 43° |
| 2026-05-05 15:13 | 27.97656 | 34.39102 | 136 ft | 12 kts | 44° |
| 2026-05-05 15:14 | 27.97722 | 34.39140 | 137 ft | 11 kts | 324° |
| 2026-05-05 15:14 | 27.97784 | 34.39078 | 138 ft | 12 kts | 313° |
| 2026-05-05 15:14 | 27.97814 | 34.39040 | 138 ft | 0 kts | 311° |
| 2026-05-05 15:14 | 27.97821 | 34.39032 | 138 ft | 5 kts | 312° |
| 2026-05-05 15:15 | 27.97864 | 34.38980 | 138 ft | 13 kts | 313° |
| 2026-05-05 15:15 | 27.97938 | 34.38976 | 138 ft | 12 kts | 32° |
| 2026-05-05 15:15 | 27.97973 | 34.38946 | 138 ft | 7 kts | 310° |
| 2026-05-05 15:15 | 27.97996 | 34.38917 | 138 ft | 0 kts | 312° |